AirNav   Everest Fuels
 
 1606 users online  

D31 Leeds Municipal Airport
Leeds, North Dakota, USA

GOING TO LEEDS?


FAA INFORMATION EFFECTIVE 16 JULY 2020

Location

FAA Identifier: D31
Lat/Long: 48-17-06.0250N 099-24-07.9100W
48-17.100417N 099-24.131833W
48.2850069,-99.4021972
(estimated)
Elevation: 1508 ft. / 459.6 m (surveyed)
Variation: 09E (1985)
From city: 2 miles E of LEEDS, ND
Time zone: UTC -5 (UTC -6 during Standard Time)
Zip code: 58346

Airport Operations

Airport use: Open to the public
Activation date: 08/1987
Control tower: no
ARTCC: MINNEAPOLIS CENTER
FSS: GRAND FORKS FLIGHT SERVICE STATION
NOTAMs facility: GFK (NOTAM-D service available)
Attendance: UNATNDD
Wind indicator: yes
Segmented circle: yes

Airport Communications

CTAF/UNICOM: 122.8
WX AWOS-3 at 9D7 (13 nm NE): 118.325 (701-968-3625)

Nearby radio navigation aids

VOR radial/distance  VOR name  Freq  Var
DVLr290/22.1DEVILS LAKE VOR/DME111.0007E

Airport Services

Airframe service: NONE
Powerplant service: NONE
Bottled oxygen: NONE
Bulk oxygen: NONE

Runway Information

Runway 9/27

Dimensions: 3000 x 50 ft. / 914 x 15 m
HAS 600 FT LGTD TURF STWY W END.
Surface: asphalt, in fair condition
Weight bearing capacity: 
Single wheel: 7.0
RUNWAY 9  RUNWAY 27
Latitude: 48-17.146333N48-17.054500N
Longitude: 099-24.495000W099-23.768667W
Elevation: 1500.0 ft.1500.0 ft.
Traffic pattern: leftleft
Markings: basic, in fair conditionbasic, in fair condition
Obstructions: none13 ft. road, 320 ft. from runway, 150 ft. both sides of centerline, 9:1 slope to clear

Airport Ownership and Management from official FAA records

Ownership: Publicly-owned
Owner: LEEDS MUNICIPAL AIRPORT AUTHORITY
440 6TH AVE SE
LEEDS, ND 58346
Phone (406) 581-1188
ERIKA KENNER, CHRMN OF ARPT AUTH
Manager: GARY LARSON
P.O. BOX 347
LEEDS, ND 58346
Phone (701) 740-7309

Airport Operational Statistics

Aircraft based on the field: 2
Single engine airplanes: 2
    
Aircraft operations: avg 50/week *
53% local general aviation
46% transient general aviation
<1% military
<1% air taxi
* for 12-month period ending 19 May 2020

Additional Remarks

CFM WINTER CONDS & SNOW REMOVAL AFTER MAJOR STORMS CALL MGR GARY LARSON (701) 740-7309.
MIGRATORY WATERFOWL ON AND INVOF ARPT APR-MAY AND SEP-NOV.
RY 27 SAFETY AREA 200 FT OUT IS ROUGH WITH CLUMPY GRASS.
FOR CD CTC MINNEAPOLIS ARTCC AT 651-463-5588.

Instrument Procedures

There are no published instrument procedures at D31.

Some nearby airports with instrument procedures:

9D7 - Cando Municipal Airport (13 nm NE)
KDVL - Devils Lake Regional Airport (22 nm SE)
KRUG - Rugby Municipal Airport (26 nm W)
5H4 - Harvey Municipal Airport (36 nm SW)
06D - Rolla Municipal Airport (37 nm N)
 
Loc | Ops | Rwys | IFR | FBO | Links
Com | Nav | Svcs | Stats | Notes

Bismarck Aero Center
AirBoss

 
Area around D31 (Leeds Municipal Airport)
 
Road maps at: MapQuest Bing Google
 
Aerial photo
WARNING: Photo may not be current or correct
Aerial photo of D31 (Leeds Municipal Airport)
Do you have a better or more recent aerial photo of Leeds Municipal Airport that you would like to share? If so, please send us your photo.

 
Sectional chart

 
Airport distance calculator
Flying to Leeds Municipal Airport? Find the distance to fly.

From to D31

Sunrise and sunset
Times for 04-Aug-2020
 Local
(UTC-5)
 Zulu
(UTC)
Morning civil twilight05:4310:43
Sunrise06:1911:19
Sunset21:0802:08
Evening civil twilight21:4402:44

Current date and time
Zulu (UTC)  04-Aug-2020 16:25:12
Local (UTC-5)  04-Aug-2020 11:25:12
 
METAR
K9D7 
13nm NE 
041555Z AUTO 17009KT 10SM CLR 20/13 A3014 RMK AO2
KDVL 
22nm SE 
041556Z AUTO 15010KT 10SM CLR 20/11 A3013 RMK AO2 SLP782 T02000111
KRUG 
26nm W 
041555Z AUTO 18008KT 160V220 10SM CLR 21/13 A3010 RMK AO2
TAF
KDVL 
22nm SE 
041120Z 0412/0512 17008KT P6SM FEW250 FM050100 14008KT P6SM BKN180 FM050600 16010KT P6SM VCTS BKN090CB
NOTAMs
Click for the latest NOTAMs
NOTAMs are issued by the DoD/FAA and will open in a separate window not controlled by AirNav.

 

 
 

Would you like to see your business listed on this page?

 If your business provides an interesting product or service to pilots, flight crews, aircraft, or users of the Leeds Municipal Airport, you should consider listing it here.  To start the listing process, click on the button below
 
Add a business
 

Other Pages about Leeds Municipal Airport

Update a link
 
Copyright © AirNav, LLC. All rights reserved. Privacy Policy  Contact